sensor_id;sensor_type;location;lat;lon;timestamp;temperature;humidity
45685;DHT22;46836;48.388;16.210;2023-03-14T00:00:23;10.10;99.90
45685;DHT22;46836;48.388;16.210;2023-03-14T00:02:53;10.10;99.90
45685;DHT22;46836;48.388;16.210;2023-03-14T00:05:21;10.00;99.90
45685;DHT22;46836;48.388;16.210;2023-03-14T00:07:48;10.00;99.90
45685;DHT22;46836;48.388;16.210;2023-03-14T00:10:15;10.00;99.90
45685;DHT22;46836;48.388;16.210;2023-03-14T00:12:43;9.80;99.90
45685;DHT22;46836;48.388;16.210;2023-03-14T00:15:11;9.80;99.90
45685;DHT22;46836;48.388;16.210;2023-03-14T00:17:38;9.80;99.90
45685;DHT22;46836;48.388;16.210;2023-03-14T00:20:07;9.70;99.90
45685;DHT22;46836;48.388;16.210;2023-03-14T00:22:38;9.70;99.90
45685;DHT22;46836;48.388;16.210;2023-03-14T00:25:07;9.70;99.90
45685;DHT22;46836;48.388;16.210;2023-03-14T00:27:35;9.60;99.90
45685;DHT22;46836;48.388;16.210;2023-03-14T00:30:04;9.60;99.90
45685;DHT22;46836;48.388;16.210;2023-03-14T00:32:31;9.60;99.90
45685;DHT22;46836;48.388;16.210;2023-03-14T00:34:58;9.50;99.90
45685;DHT22;46836;48.388;16.210;2023-03-14T00:37:27;9.50;99.90
45685;DHT22;46836;48.388;16.210;2023-03-14T00:39:54;9.60;99.90
45685;DHT22;46836;48.388;16.210;2023-03-14T00:42:21;9.60;99.90
45685;DHT22;46836;48.388;16.210;2023-03-14T00:44:48;9.60;99.90
45685;DHT22;46836;48.388;16.210;2023-03-14T00:47:15;9.50;99.90
45685;DHT22;46836;48.388;16.210;2023-03-14T00:49:42;9.50;99.90
45685;DHT22;46836;48.388;16.210;2023-03-14T00:52:10;9.50;99.90
45685;DHT22;46836;48.388;16.210;2023-03-14T00:54:37;9.50;99.90
45685;DHT22;46836;48.388;16.210;2023-03-14T00:57:04;9.50;99.90
45685;DHT22;46836;48.388;16.210;2023-03-14T00:59:31;9.40;99.90
45685;DHT22;46836;48.388;16.210;2023-03-14T01:01:58;9.40;99.90
45685;DHT22;46836;48.388;16.210;2023-03-14T01:04:25;9.40;99.90
45685;DHT22;46836;48.388;16.210;2023-03-14T01:06:52;9.40;99.90
45685;DHT22;46836;48.388;16.210;2023-03-14T01:09:19;9.40;99.90
45685;DHT22;46836;48.388;16.210;2023-03-14T01:11:46;9.30;99.90
45685;DHT22;46836;48.388;16.210;2023-03-14T01:14:13;9.30;99.90
45685;DHT22;46836;48.388;16.210;2023-03-14T01:16:40;9.30;99.90
45685;DHT22;46836;48.388;16.210;2023-03-14T01:19:08;9.30;99.90
45685;DHT22;46836;48.388;16.210;2023-03-14T01:21:36;9.30;99.90
45685;DHT22;46836;48.388;16.210;2023-03-14T01:24:05;9.30;99.90
45685;DHT22;46836;48.388;16.210;2023-03-14T01:26:34;9.30;99.90
45685;DHT22;46836;48.388;16.210;2023-03-14T01:29:01;9.30;99.90
45685;DHT22;46836;48.388;16.210;2023-03-14T01:31:28;9.30;99.90
45685;DHT22;46836;48.388;16.210;2023-03-14T01:33:56;9.20;99.90
45685;DHT22;46836;48.388;16.210;2023-03-14T01:36:23;9.20;99.90
45685;DHT22;46836;48.388;16.210;2023-03-14T01:38:50;9.20;99.90
45685;DHT22;46836;48.388;16.210;2023-03-14T01:41:22;9.10;99.90
45685;DHT22;46836;48.388;16.210;2023-03-14T01:43:50;9.10;99.90
45685;DHT22;46836;48.388;16.210;2023-03-14T01:51:29;9.10;99.90
45685;DHT22;46836;48.388;16.210;2023-03-14T01:54:05;9.10;99.90
45685;DHT22;46836;48.388;16.210;2023-03-14T01:56:35;9.10;99.90
45685;DHT22;46836;48.388;16.210;2023-03-14T01:59:06;9.00;99.90
45685;DHT22;46836;48.388;16.210;2023-03-14T02:01:35;9.00;99.90
45685;DHT22;46836;48.388;16.210;2023-03-14T02:04:04;9.00;99.90
45685;DHT22;46836;48.388;16.210;2023-03-14T02:06:44;9.00;99.90
45685;DHT22;46836;48.388;16.210;2023-03-14T02:09:13;9.00;99.90
45685;DHT22;46836;48.388;16.210;2023-03-14T02:11:41;9.00;99.90
45685;DHT22;46836;48.388;16.210;2023-03-14T02:14:17;9.00;99.90
45685;DHT22;46836;48.388;16.210;2023-03-14T02:16:45;9.00;99.90
45685;DHT22;46836;48.388;16.210;2023-03-14T02:19:17;9.00;99.90
45685;DHT22;46836;48.388;16.210;2023-03-14T02:22:19;9.00;99.90
45685;DHT22;46836;48.388;16.210;2023-03-14T02:24:51;9.00;99.90
45685;DHT22;46836;48.388;16.210;2023-03-14T02:27:21;8.90;99.90
45685;DHT22;46836;48.388;16.210;2023-03-14T02:32:20;8.90;99.90
45685;DHT22;46836;48.388;16.210;2023-03-14T02:34:51;9.00;99.90
45685;DHT22;46836;48.388;16.210;2023-03-14T02:37:21;9.00;99.90
45685;DHT22;46836;48.388;16.210;2023-03-14T02:39:49;9.00;99.90
45685;DHT22;46836;48.388;16.210;2023-03-14T02:42:16;8.90;99.90
45685;DHT22;46836;48.388;16.210;2023-03-14T02:45:47;8.90;99.90
45685;DHT22;46836;48.388;16.210;2023-03-14T02:47:59;8.90;99.90
45685;DHT22;46836;48.388;16.210;2023-03-14T02:50:31;8.80;99.90
45685;DHT22;46836;48.388;16.210;2023-03-14T02:53:00;8.80;99.90
45685;DHT22;46836;48.388;16.210;2023-03-14T02:55:27;8.70;99.90
45685;DHT22;46836;48.388;16.210;2023-03-14T02:57:54;8.70;99.90
45685;DHT22;46836;48.388;16.210;2023-03-14T03:00:21;8.60;99.90
45685;DHT22;46836;48.388;16.210;2023-03-14T03:02:48;8.60;99.90
45685;DHT22;46836;48.388;16.210;2023-03-14T03:05:16;8.60;99.90
45685;DHT22;46836;48.388;16.210;2023-03-14T03:07:43;8.50;99.90
45685;DHT22;46836;48.388;16.210;2023-03-14T03:10:10;8.50;99.90
45685;DHT22;46836;48.388;16.210;2023-03-14T03:12:37;8.40;99.90
45685;DHT22;46836;48.388;16.210;2023-03-14T03:15:05;8.40;99.90
45685;DHT22;46836;48.388;16.210;2023-03-14T03:17:32;8.30;99.90
45685;DHT22;46836;48.388;16.210;2023-03-14T03:19:59;8.30;99.90
45685;DHT22;46836;48.388;16.210;2023-03-14T03:22:26;8.20;99.90
45685;DHT22;46836;48.388;16.210;2023-03-14T03:24:53;8.10;99.90
45685;DHT22;46836;48.388;16.210;2023-03-14T03:27:20;8.00;99.90
45685;DHT22;46836;48.388;16.210;2023-03-14T03:29:47;7.90;99.90
45685;DHT22;46836;48.388;16.210;2023-03-14T03:32:14;7.80;99.90
45685;DHT22;46836;48.388;16.210;2023-03-14T03:34:41;7.80;99.90
45685;DHT22;46836;48.388;16.210;2023-03-14T03:37:08;7.70;99.90
45685;DHT22;46836;48.388;16.210;2023-03-14T03:39:35;7.70;99.90
45685;DHT22;46836;48.388;16.210;2023-03-14T03:42:02;7.60;99.90
45685;DHT22;46836;48.388;16.210;2023-03-14T03:44:29;7.60;99.90
45685;DHT22;46836;48.388;16.210;2023-03-14T03:46:56;7.50;99.90
45685;DHT22;46836;48.388;16.210;2023-03-14T03:49:23;7.50;99.90
45685;DHT22;46836;48.388;16.210;2023-03-14T03:51:50;7.40;99.90
45685;DHT22;46836;48.388;16.210;2023-03-14T03:54:18;7.30;99.90
45685;DHT22;46836;48.388;16.210;2023-03-14T03:56:45;7.30;99.90
45685;DHT22;46836;48.388;16.210;2023-03-14T03:59:12;7.20;99.90
45685;DHT22;46836;48.388;16.210;2023-03-14T04:01:40;7.10;99.90
45685;DHT22;46836;48.388;16.210;2023-03-14T04:04:07;7.10;99.90
45685;DHT22;46836;48.388;16.210;2023-03-14T04:06:34;7.00;99.90
45685;DHT22;46836;48.388;16.210;2023-03-14T04:09:01;6.90;99.90
45685;DHT22;46836;48.388;16.210;2023-03-14T04:11:28;6.80;99.90
45685;DHT22;46836;48.388;16.210;2023-03-14T04:13:55;6.70;99.90
45685;DHT22;46836;48.388;16.210;2023-03-14T04:16:24;6.70;99.90
45685;DHT22;46836;48.388;16.210;2023-03-14T04:18:51;6.60;99.90
45685;DHT22;46836;48.388;16.210;2023-03-14T04:21:19;6.70;99.90
45685;DHT22;46836;48.388;16.210;2023-03-14T04:23:46;6.60;99.90
45685;DHT22;46836;48.388;16.210;2023-03-14T04:26:13;6.70;99.90
45685;DHT22;46836;48.388;16.210;2023-03-14T04:28:40;6.60;99.90
45685;DHT22;46836;48.388;16.210;2023-03-14T04:31:18;6.60;99.90
45685;DHT22;46836;48.388;16.210;2023-03-14T04:33:46;6.70;99.90
45685;DHT22;46836;48.388;16.210;2023-03-14T04:36:13;6.60;99.90
45685;DHT22;46836;48.388;16.210;2023-03-14T04:38:40;6.70;99.90
45685;DHT22;46836;48.388;16.210;2023-03-14T04:41:07;6.70;99.90
45685;DHT22;46836;48.388;16.210;2023-03-14T04:43:35;6.70;99.90
45685;DHT22;46836;48.388;16.210;2023-03-14T04:46:02;6.70;99.90
45685;DHT22;46836;48.388;16.210;2023-03-14T04:48:29;6.70;99.90
45685;DHT22;46836;48.388;16.210;2023-03-14T04:50:56;6.70;99.90
45685;DHT22;46836;48.388;16.210;2023-03-14T04:53:23;6.70;99.90
45685;DHT22;46836;48.388;16.210;2023-03-14T04:55:55;6.70;99.90
45685;DHT22;46836;48.388;16.210;2023-03-14T04:58:23;6.70;99.90
45685;DHT22;46836;48.388;16.210;2023-03-14T05:00:50;6.80;99.90
45685;DHT22;46836;48.388;16.210;2023-03-14T05:03:18;6.70;99.90
45685;DHT22;46836;48.388;16.210;2023-03-14T05:05:46;6.80;99.90
45685;DHT22;46836;48.388;16.210;2023-03-14T05:08:13;6.80;99.90
45685;DHT22;46836;48.388;16.210;2023-03-14T05:10:40;6.80;99.90
45685;DHT22;46836;48.388;16.210;2023-03-14T05:13:07;6.80;99.90
45685;DHT22;46836;48.388;16.210;2023-03-14T05:15:34;6.80;99.90
45685;DHT22;46836;48.388;16.210;2023-03-14T05:18:01;6.80;99.90
45685;DHT22;46836;48.388;16.210;2023-03-14T05:20:28;6.80;99.90
45685;DHT22;46836;48.388;16.210;2023-03-14T05:22:56;6.90;99.90
45685;DHT22;46836;48.388;16.210;2023-03-14T05:25:24;6.90;99.90
45685;DHT22;46836;48.388;16.210;2023-03-14T05:27:53;6.90;99.90
45685;DHT22;46836;48.388;16.210;2023-03-14T05:30:21;6.90;99.90
45685;DHT22;46836;48.388;16.210;2023-03-14T05:32:48;6.90;99.90
45685;DHT22;46836;48.388;16.210;2023-03-14T05:35:15;6.90;99.90
45685;DHT22;46836;48.388;16.210;2023-03-14T05:37:42;6.90;99.90
45685;DHT22;46836;48.388;16.210;2023-03-14T05:40:10;6.90;99.90
45685;DHT22;46836;48.388;16.210;2023-03-14T05:42:37;6.90;99.90
45685;DHT22;46836;48.388;16.210;2023-03-14T05:45:05;6.90;99.90
45685;DHT22;46836;48.388;16.210;2023-03-14T05:47:32;7.00;99.90
45685;DHT22;46836;48.388;16.210;2023-03-14T05:49:59;7.00;99.90
45685;DHT22;46836;48.388;16.210;2023-03-14T05:52:26;7.10;99.90
45685;DHT22;46836;48.388;16.210;2023-03-14T05:54:53;7.10;99.90
45685;DHT22;46836;48.388;16.210;2023-03-14T05:57:20;7.20;99.90
45685;DHT22;46836;48.388;16.210;2023-03-14T05:59:47;7.20;99.90
45685;DHT22;46836;48.388;16.210;2023-03-14T06:02:14;7.30;99.90
45685;DHT22;46836;48.388;16.210;2023-03-14T06:04:41;7.30;99.90
45685;DHT22;46836;48.388;16.210;2023-03-14T06:07:08;7.30;99.90
45685;DHT22;46836;48.388;16.210;2023-03-14T06:09:35;7.30;99.90
45685;DHT22;46836;48.388;16.210;2023-03-14T06:12:03;7.40;99.90
45685;DHT22;46836;48.388;16.210;2023-03-14T06:14:30;7.50;99.90
45685;DHT22;46836;48.388;16.210;2023-03-14T06:16:57;7.70;99.90
45685;DHT22;46836;48.388;16.210;2023-03-14T06:19:26;7.80;99.90
45685;DHT22;46836;48.388;16.210;2023-03-14T06:21:53;8.00;99.90
45685;DHT22;46836;48.388;16.210;2023-03-14T06:24:20;8.10;99.90
45685;DHT22;46836;48.388;16.210;2023-03-14T06:26:47;8.30;99.90
45685;DHT22;46836;48.388;16.210;2023-03-14T06:29:14;8.50;99.90
45685;DHT22;46836;48.388;16.210;2023-03-14T06:31:41;8.60;99.90
45685;DHT22;46836;48.388;16.210;2023-03-14T06:34:08;8.80;99.90
45685;DHT22;46836;48.388;16.210;2023-03-14T06:36:35;8.90;99.90
45685;DHT22;46836;48.388;16.210;2023-03-14T06:39:03;9.10;99.90
45685;DHT22;46836;48.388;16.210;2023-03-14T06:41:30;9.30;99.90
45685;DHT22;46836;48.388;16.210;2023-03-14T06:43:57;9.50;99.90
45685;DHT22;46836;48.388;16.210;2023-03-14T06:46:25;9.80;99.90
45685;DHT22;46836;48.388;16.210;2023-03-14T06:48:52;9.90;99.90
45685;DHT22;46836;48.388;16.210;2023-03-14T06:51:19;10.00;99.90
45685;DHT22;46836;48.388;16.210;2023-03-14T06:53:46;10.10;99.90
45685;DHT22;46836;48.388;16.210;2023-03-14T06:56:13;10.20;99.90
45685;DHT22;46836;48.388;16.210;2023-03-14T06:58:40;10.20;99.90
45685;DHT22;46836;48.388;16.210;2023-03-14T07:01:21;10.30;99.90
45685;DHT22;46836;48.388;16.210;2023-03-14T07:03:49;10.40;99.90
45685;DHT22;46836;48.388;16.210;2023-03-14T07:06:16;10.50;99.90
45685;DHT22;46836;48.388;16.210;2023-03-14T07:08:43;10.60;99.90
45685;DHT22;46836;48.388;16.210;2023-03-14T07:11:11;10.70;99.90
45685;DHT22;46836;48.388;16.210;2023-03-14T07:13:38;10.90;99.90
45685;DHT22;46836;48.388;16.210;2023-03-14T07:16:06;11.00;99.90
45685;DHT22;46836;48.388;16.210;2023-03-14T07:18:34;11.10;99.90
45685;DHT22;46836;48.388;16.210;2023-03-14T07:21:01;11.10;99.90
45685;DHT22;46836;48.388;16.210;2023-03-14T07:23:28;11.20;99.90
45685;DHT22;46836;48.388;16.210;2023-03-14T07:25:56;11.20;99.90
45685;DHT22;46836;48.388;16.210;2023-03-14T07:28:23;11.30;99.90
45685;DHT22;46836;48.388;16.210;2023-03-14T07:30:50;11.40;99.90
45685;DHT22;46836;48.388;16.210;2023-03-14T07:33:17;11.40;99.90
45685;DHT22;46836;48.388;16.210;2023-03-14T07:35:49;11.50;99.90
45685;DHT22;46836;48.388;16.210;2023-03-14T07:38:17;11.50;99.90
45685;DHT22;46836;48.388;16.210;2023-03-14T07:40:47;11.60;99.90
45685;DHT22;46836;48.388;16.210;2023-03-14T07:43:14;11.70;99.90
45685;DHT22;46836;48.388;16.210;2023-03-14T07:45:41;11.70;99.90
45685;DHT22;46836;48.388;16.210;2023-03-14T07:48:09;11.80;99.90
45685;DHT22;46836;48.388;16.210;2023-03-14T07:50:36;11.90;99.90
45685;DHT22;46836;48.388;16.210;2023-03-14T07:53:03;12.00;99.90
45685;DHT22;46836;48.388;16.210;2023-03-14T07:55:30;12.00;99.90
45685;DHT22;46836;48.388;16.210;2023-03-14T07:57:57;12.10;99.90
45685;DHT22;46836;48.388;16.210;2023-03-14T08:00:24;12.10;99.90
45685;DHT22;46836;48.388;16.210;2023-03-14T08:02:52;12.20;99.90
45685;DHT22;46836;48.388;16.210;2023-03-14T08:05:19;12.20;99.90
45685;DHT22;46836;48.388;16.210;2023-03-14T08:07:46;12.20;99.90
45685;DHT22;46836;48.388;16.210;2023-03-14T08:10:13;12.20;99.90
45685;DHT22;46836;48.388;16.210;2023-03-14T08:12:55;12.20;99.90
45685;DHT22;46836;48.388;16.210;2023-03-14T08:15:23;12.30;99.90
45685;DHT22;46836;48.388;16.210;2023-03-14T08:17:51;12.30;99.90
45685;DHT22;46836;48.388;16.210;2023-03-14T08:20:20;12.30;99.90
45685;DHT22;46836;48.388;16.210;2023-03-14T08:22:48;12.30;99.90
45685;DHT22;46836;48.388;16.210;2023-03-14T08:25:16;12.30;99.90
45685;DHT22;46836;48.388;16.210;2023-03-14T08:27:43;12.30;99.90
45685;DHT22;46836;48.388;16.210;2023-03-14T08:30:13;12.30;99.90
45685;DHT22;46836;48.388;16.210;2023-03-14T08:32:41;12.30;99.90
45685;DHT22;46836;48.388;16.210;2023-03-14T08:35:09;12.30;99.90
45685;DHT22;46836;48.388;16.210;2023-03-14T08:37:37;12.30;99.90
45685;DHT22;46836;48.388;16.210;2023-03-14T08:40:05;12.30;99.90
45685;DHT22;46836;48.388;16.210;2023-03-14T08:42:34;12.40;99.90
45685;DHT22;46836;48.388;16.210;2023-03-14T08:45:01;12.40;99.90
45685;DHT22;46836;48.388;16.210;2023-03-14T08:47:28;12.40;99.90
45685;DHT22;46836;48.388;16.210;2023-03-14T08:49:55;12.40;99.90
45685;DHT22;46836;48.388;16.210;2023-03-14T08:52:22;12.50;99.90
45685;DHT22;46836;48.388;16.210;2023-03-14T08:54:49;12.50;99.90
45685;DHT22;46836;48.388;16.210;2023-03-14T08:57:17;12.50;99.90
45685;DHT22;46836;48.388;16.210;2023-03-14T08:59:44;12.60;99.90
45685;DHT22;46836;48.388;16.210;2023-03-14T09:02:11;12.60;99.90
45685;DHT22;46836;48.388;16.210;2023-03-14T09:04:39;12.60;99.90
45685;DHT22;46836;48.388;16.210;2023-03-14T09:07:06;12.70;99.90
45685;DHT22;46836;48.388;16.210;2023-03-14T09:09:33;12.70;99.90
45685;DHT22;46836;48.388;16.210;2023-03-14T09:12:00;12.70;99.90
45685;DHT22;46836;48.388;16.210;2023-03-14T09:14:28;12.70;99.90
45685;DHT22;46836;48.388;16.210;2023-03-14T09:16:55;12.70;99.90
45685;DHT22;46836;48.388;16.210;2023-03-14T09:19:22;12.80;99.90
45685;DHT22;46836;48.388;16.210;2023-03-14T09:21:49;12.80;99.90
45685;DHT22;46836;48.388;16.210;2023-03-14T09:24:18;12.80;99.90
45685;DHT22;46836;48.388;16.210;2023-03-14T09:26:45;12.80;99.90
45685;DHT22;46836;48.388;16.210;2023-03-14T09:29:12;12.80;99.90
45685;DHT22;46836;48.388;16.210;2023-03-14T09:31:39;12.80;99.90
45685;DHT22;46836;48.388;16.210;2023-03-14T09:34:06;12.90;99.90
45685;DHT22;46836;48.388;16.210;2023-03-14T09:36:33;12.90;99.90
45685;DHT22;46836;48.388;16.210;2023-03-14T09:39:00;12.90;99.90
45685;DHT22;46836;48.388;16.210;2023-03-14T09:41:37;13.00;99.90
45685;DHT22;46836;48.388;16.210;2023-03-14T09:46:41;13.00;99.90
45685;DHT22;46836;48.388;16.210;2023-03-14T09:49:20;12.90;99.90
45685;DHT22;46836;48.388;16.210;2023-03-14T09:51:51;12.80;99.90
45685;DHT22;46836;48.388;16.210;2023-03-14T09:54:47;12.90;99.90
45685;DHT22;46836;48.388;16.210;2023-03-14T09:57:17;12.90;99.90
45685;DHT22;46836;48.388;16.210;2023-03-14T09:59:46;12.90;99.90
45685;DHT22;46836;48.388;16.210;2023-03-14T10:02:22;12.90;99.90
45685;DHT22;46836;48.388;16.210;2023-03-14T10:04:51;12.90;99.90
45685;DHT22;46836;48.388;16.210;2023-03-14T10:07:31;12.90;99.90
45685;DHT22;46836;48.388;16.210;2023-03-14T10:09:59;12.90;99.90
45685;DHT22;46836;48.388;16.210;2023-03-14T10:12:35;12.90;99.90
45685;DHT22;46836;48.388;16.210;2023-03-14T10:15:08;12.90;99.90
45685;DHT22;46836;48.388;16.210;2023-03-14T10:17:46;13.00;99.90
45685;DHT22;46836;48.388;16.210;2023-03-14T10:20:34;13.00;99.90
45685;DHT22;46836;48.388;16.210;2023-03-14T10:28:33;13.00;99.90
45685;DHT22;46836;48.388;16.210;2023-03-14T10:31:00;13.00;99.90
45685;DHT22;46836;48.388;16.210;2023-03-14T10:33:33;12.90;99.90
45685;DHT22;46836;48.388;16.210;2023-03-14T10:36:14;12.90;99.90
45685;DHT22;46836;48.388;16.210;2023-03-14T10:38:43;12.80;99.90
45685;DHT22;46836;48.388;16.210;2023-03-14T10:41:30;12.80;99.90
45685;DHT22;46836;48.388;16.210;2023-03-14T10:43:59;12.80;99.90
45685;DHT22;46836;48.388;16.210;2023-03-14T10:46:30;12.80;99.90
45685;DHT22;46836;48.388;16.210;2023-03-14T10:48:57;12.70;99.90
45685;DHT22;46836;48.388;16.210;2023-03-14T10:51:27;12.70;99.90
45685;DHT22;46836;48.388;16.210;2023-03-14T10:54:09;12.70;99.90
45685;DHT22;46836;48.388;16.210;2023-03-14T10:56:38;12.70;99.90
45685;DHT22;46836;48.388;16.210;2023-03-14T10:59:14;12.60;99.90
45685;DHT22;46836;48.388;16.210;2023-03-14T11:07:39;12.50;99.90
45685;DHT22;46836;48.388;16.210;2023-03-14T11:10:53;12.50;99.90
45685;DHT22;46836;48.388;16.210;2023-03-14T11:21:12;12.30;99.90
45685;DHT22;46836;48.388;16.210;2023-03-14T11:30:12;12.20;99.90
45685;DHT22;46836;48.388;16.210;2023-03-14T11:32:19;12.20;99.90
45685;DHT22;46836;48.388;16.210;2023-03-14T11:34:53;12.20;99.90
45685;DHT22;46836;48.388;16.210;2023-03-14T11:37:33;12.20;99.90
45685;DHT22;46836;48.388;16.210;2023-03-14T11:40:21;12.10;99.90
45685;DHT22;46836;48.388;16.210;2023-03-14T11:46:05;12.10;99.90
45685;DHT22;46836;48.388;16.210;2023-03-14T11:48:45;12.00;99.90
45685;DHT22;46836;48.388;16.210;2023-03-14T11:51:25;12.00;99.90
45685;DHT22;46836;48.388;16.210;2023-03-14T11:54:14;12.00;99.90
45685;DHT22;46836;48.388;16.210;2023-03-14T11:56:58;12.00;99.90
45685;DHT22;46836;48.388;16.210;2023-03-14T12:02:51;11.90;99.90
45685;DHT22;46836;48.388;16.210;2023-03-14T12:10:58;11.80;99.90
45685;DHT22;46836;48.388;16.210;2023-03-14T12:13:33;11.70;99.90
45685;DHT22;46836;48.388;16.210;2023-03-14T12:16:05;11.70;99.90
45685;DHT22;46836;48.388;16.210;2023-03-14T12:18:35;11.70;99.90
45685;DHT22;46836;48.388;16.210;2023-03-14T12:21:11;11.70;99.90
45685;DHT22;46836;48.388;16.210;2023-03-14T12:23:49;11.70;99.90
45685;DHT22;46836;48.388;16.210;2023-03-14T12:26:20;11.60;99.90
45685;DHT22;46836;48.388;16.210;2023-03-14T12:39:58;11.40;99.90
45685;DHT22;46836;48.388;16.210;2023-03-14T12:42:59;11.40;99.90
45685;DHT22;46836;48.388;16.210;2023-03-14T12:45:33;11.40;99.90
45685;DHT22;46836;48.388;16.210;2023-03-14T12:48:06;11.40;99.90
45685;DHT22;46836;48.388;16.210;2023-03-14T12:50:56;11.30;99.90
45685;DHT22;46836;48.388;16.210;2023-03-14T12:53:53;11.40;99.90
45685;DHT22;46836;48.388;16.210;2023-03-14T13:02:26;11.30;99.90
45685;DHT22;46836;48.388;16.210;2023-03-14T13:05:11;11.30;99.90
45685;DHT22;46836;48.388;16.210;2023-03-14T13:15:39;11.40;99.90
45685;DHT22;46836;48.388;16.210;2023-03-14T13:18:16;11.40;99.90
45685;DHT22;46836;48.388;16.210;2023-03-14T13:21:15;11.40;99.90
45685;DHT22;46836;48.388;16.210;2023-03-14T13:24:07;11.40;99.90
45685;DHT22;46836;48.388;16.210;2023-03-14T13:26:45;11.40;99.90
45685;DHT22;46836;48.388;16.210;2023-03-14T13:31:47;11.40;99.90
45685;DHT22;46836;48.388;16.210;2023-03-14T13:34:14;11.40;99.90
45685;DHT22;46836;48.388;16.210;2023-03-14T13:36:41;11.40;99.90
45685;DHT22;46836;48.388;16.210;2023-03-14T13:39:21;11.40;99.90
45685;DHT22;46836;48.388;16.210;2023-03-14T13:41:52;11.40;99.90
45685;DHT22;46836;48.388;16.210;2023-03-14T13:44:34;11.40;99.90
45685;DHT22;46836;48.388;16.210;2023-03-14T13:47:04;11.40;99.90
45685;DHT22;46836;48.388;16.210;2023-03-14T13:49:33;11.40;99.90
45685;DHT22;46836;48.388;16.210;2023-03-14T13:52:03;11.40;99.90
45685;DHT22;46836;48.388;16.210;2023-03-14T13:54:31;11.40;99.90
45685;DHT22;46836;48.388;16.210;2023-03-14T13:57:06;11.40;99.90
45685;DHT22;46836;48.388;16.210;2023-03-14T13:59:34;11.40;99.90
45685;DHT22;46836;48.388;16.210;2023-03-14T14:02:13;11.40;99.90
45685;DHT22;46836;48.388;16.210;2023-03-14T14:04:43;11.50;99.90
45685;DHT22;46836;48.388;16.210;2023-03-14T14:07:16;11.50;99.90
45685;DHT22;46836;48.388;16.210;2023-03-14T14:09:50;11.50;99.90
45685;DHT22;46836;48.388;16.210;2023-03-14T14:15:18;11.60;99.90
45685;DHT22;46836;48.388;16.210;2023-03-14T14:17:56;11.60;99.90
45685;DHT22;46836;48.388;16.210;2023-03-14T14:20:42;11.60;99.90
45685;DHT22;46836;48.388;16.210;2023-03-14T14:25:43;11.60;99.90
45685;DHT22;46836;48.388;16.210;2023-03-14T14:33:27;11.60;99.90
45685;DHT22;46836;48.388;16.210;2023-03-14T14:35:58;11.60;99.90
45685;DHT22;46836;48.388;16.210;2023-03-14T14:38:27;11.60;99.90
45685;DHT22;46836;48.388;16.210;2023-03-14T14:41:00;11.60;99.90
45685;DHT22;46836;48.388;16.210;2023-03-14T14:43:32;11.70;99.90
45685;DHT22;46836;48.388;16.210;2023-03-14T14:46:01;11.70;99.90
45685;DHT22;46836;48.388;16.210;2023-03-14T14:48:37;11.70;99.90
45685;DHT22;46836;48.388;16.210;2023-03-14T14:51:06;11.80;99.90
45685;DHT22;46836;48.388;16.210;2023-03-14T14:53:41;11.80;99.90
45685;DHT22;46836;48.388;16.210;2023-03-14T14:56:26;11.90;99.90
45685;DHT22;46836;48.388;16.210;2023-03-14T14:59:01;11.90;99.90
45685;DHT22;46836;48.388;16.210;2023-03-14T15:01:35;11.90;99.90
45685;DHT22;46836;48.388;16.210;2023-03-14T15:04:11;11.90;99.90
45685;DHT22;46836;48.388;16.210;2023-03-14T15:06:45;12.00;99.90
45685;DHT22;46836;48.388;16.210;2023-03-14T15:09:14;11.90;99.90
45685;DHT22;46836;48.388;16.210;2023-03-14T15:11:43;11.90;99.90
45685;DHT22;46836;48.388;16.210;2023-03-14T15:14:10;12.00;99.90
45685;DHT22;46836;48.388;16.210;2023-03-14T15:16:39;12.00;99.90
45685;DHT22;46836;48.388;16.210;2023-03-14T15:19:20;12.00;99.90
45685;DHT22;46836;48.388;16.210;2023-03-14T15:21:52;12.10;99.90
45685;DHT22;46836;48.388;16.210;2023-03-14T15:24:20;12.10;99.90
45685;DHT22;46836;48.388;16.210;2023-03-14T15:26:48;12.10;99.90
45685;DHT22;46836;48.388;16.210;2023-03-14T15:29:15;12.10;99.90
45685;DHT22;46836;48.388;16.210;2023-03-14T15:31:42;12.10;99.90
45685;DHT22;46836;48.388;16.210;2023-03-14T15:34:12;12.10;99.90
45685;DHT22;46836;48.388;16.210;2023-03-14T15:36:39;12.10;99.90
45685;DHT22;46836;48.388;16.210;2023-03-14T15:39:07;12.00;99.90
45685;DHT22;46836;48.388;16.210;2023-03-14T15:41:36;12.10;99.90
45685;DHT22;46836;48.388;16.210;2023-03-14T15:44:04;12.10;99.90
45685;DHT22;46836;48.388;16.210;2023-03-14T15:46:31;12.10;99.90
45685;DHT22;46836;48.388;16.210;2023-03-14T15:48:58;12.10;99.90
45685;DHT22;46836;48.388;16.210;2023-03-14T15:51:25;12.10;99.90
45685;DHT22;46836;48.388;16.210;2023-03-14T15:53:52;12.10;99.90
45685;DHT22;46836;48.388;16.210;2023-03-14T15:56:20;12.10;99.90
45685;DHT22;46836;48.388;16.210;2023-03-14T15:58:47;12.10;99.90
45685;DHT22;46836;48.388;16.210;2023-03-14T16:01:15;12.10;99.90
45685;DHT22;46836;48.388;16.210;2023-03-14T16:03:44;12.10;99.90
45685;DHT22;46836;48.388;16.210;2023-03-14T16:06:15;12.10;99.90
45685;DHT22;46836;48.388;16.210;2023-03-14T16:08:43;12.10;99.90
45685;DHT22;46836;48.388;16.210;2023-03-14T16:11:11;12.10;99.90
45685;DHT22;46836;48.388;16.210;2023-03-14T16:13:40;12.00;99.90
45685;DHT22;46836;48.388;16.210;2023-03-14T16:16:08;12.00;99.90
45685;DHT22;46836;48.388;16.210;2023-03-14T16:18:36;12.00;99.90
45685;DHT22;46836;48.388;16.210;2023-03-14T16:21:11;12.00;99.90
45685;DHT22;46836;48.388;16.210;2023-03-14T16:23:39;12.00;99.90
45685;DHT22;46836;48.388;16.210;2023-03-14T16:26:09;12.00;99.90
45685;DHT22;46836;48.388;16.210;2023-03-14T16:28:37;12.00;99.90
45685;DHT22;46836;48.388;16.210;2023-03-14T16:31:07;11.90;99.90
45685;DHT22;46836;48.388;16.210;2023-03-14T16:33:36;11.90;99.90
45685;DHT22;46836;48.388;16.210;2023-03-14T16:36:05;11.90;99.90
45685;DHT22;46836;48.388;16.210;2023-03-14T16:38:36;11.90;99.90
45685;DHT22;46836;48.388;16.210;2023-03-14T16:41:11;11.80;99.90
45685;DHT22;46836;48.388;16.210;2023-03-14T16:43:39;11.80;99.90
45685;DHT22;46836;48.388;16.210;2023-03-14T16:46:11;11.80;99.90
45685;DHT22;46836;48.388;16.210;2023-03-14T16:48:38;11.80;99.90
45685;DHT22;46836;48.388;16.210;2023-03-14T16:51:06;11.70;99.90
45685;DHT22;46836;48.388;16.210;2023-03-14T16:53:33;11.70;99.90
45685;DHT22;46836;48.388;16.210;2023-03-14T16:56:00;11.60;99.90
45685;DHT22;46836;48.388;16.210;2023-03-14T16:58:28;11.50;99.90
45685;DHT22;46836;48.388;16.210;2023-03-14T17:00:57;11.50;99.90
45685;DHT22;46836;48.388;16.210;2023-03-14T17:03:25;11.50;99.90
45685;DHT22;46836;48.388;16.210;2023-03-14T17:05:54;11.40;99.90